Zulu, Indiana
Current Conditions -  °F | °C
As of 2:54 AM on Saturday 29 Nov 2014 (Local Time) from KFWA Reporting Station
Scattered Clouds Scattered Clouds  
Wind Chill: 23°   Ceiling: Unl
Heat Index: 29°   Visibility: 10mi
Dew Point: 21°   Wind: 6mph
Humidity: 72%   Direction: 130°SE
Pressure: 29.99"   Gusts: NA
Location:  40.9863°N, 84.8797°W
Report Text: KFWA 290754Z 13005KT 10SM FEW130 SCT250 M02/M06 A2999 RMK AO2 SLP165 T10171061 $
Loading
Personal Weather Stations






























Interactive Weather Map New forecast layout! Learn more

10-Day Weather Forecast

Advertisements
Track Severe Weather on mobile